sensor_id;sensor_type;location;lat;lon;timestamp;P1;durP1;ratioP1;P2;durP2;ratioP2
25988;SDS011;13778;48.236;9.894;2022-09-24T00:04:23;14.10;;;10.32;;
25988;SDS011;13778;48.236;9.894;2022-09-24T00:07:13;14.63;;;11.25;;
25988;SDS011;13778;48.236;9.894;2022-09-24T00:10:04;16.65;;;11.60;;
25988;SDS011;13778;48.236;9.894;2022-09-24T00:12:55;15.25;;;10.73;;
25988;SDS011;13778;48.236;9.894;2022-09-24T00:15:47;22.75;;;10.32;;
25988;SDS011;13778;48.236;9.894;2022-09-24T00:18:38;17.40;;;10.02;;
25988;SDS011;13778;48.236;9.894;2022-09-24T00:21:29;13.95;;;10.75;;
25988;SDS011;13778;48.236;9.894;2022-09-24T00:24:20;13.98;;;9.82;;
25988;SDS011;13778;48.236;9.894;2022-09-24T00:27:28;15.07;;;11.07;;
25988;SDS011;13778;48.236;9.894;2022-09-24T00:30:18;15.00;;;11.50;;
25988;SDS011;13778;48.236;9.894;2022-09-24T00:33:10;14.20;;;11.00;;
25988;SDS011;13778;48.236;9.894;2022-09-24T00:38:53;12.88;;;10.60;;
25988;SDS011;13778;48.236;9.894;2022-09-24T00:41:44;18.17;;;12.13;;
25988;SDS011;13778;48.236;9.894;2022-09-24T00:44:50;17.73;;;11.07;;
25988;SDS011;13778;48.236;9.894;2022-09-24T00:47:42;13.82;;;10.85;;
25988;SDS011;13778;48.236;9.894;2022-09-24T00:50:34;15.20;;;10.82;;
25988;SDS011;13778;48.236;9.894;2022-09-24T00:53:25;13.93;;;11.15;;
25988;SDS011;13778;48.236;9.894;2022-09-24T00:56:19;12.30;;;10.77;;
25988;SDS011;13778;48.236;9.894;2022-09-24T00:59:12;14.45;;;10.25;;
25988;SDS011;13778;48.236;9.894;2022-09-24T01:02:05;14.52;;;10.52;;
25988;SDS011;13778;48.236;9.894;2022-09-24T01:04:55;15.18;;;10.77;;
25988;SDS011;13778;48.236;9.894;2022-09-24T01:07:47;12.82;;;9.82;;
25988;SDS011;13778;48.236;9.894;2022-09-24T01:10:40;16.88;;;10.85;;
25988;SDS011;13778;48.236;9.894;2022-09-24T01:16:32;11.30;;;10.10;;
25988;SDS011;13778;48.236;9.894;2022-09-24T01:19:29;14.02;;;11.02;;
25988;SDS011;13778;48.236;9.894;2022-09-24T01:22:30;15.93;;;10.73;;
25988;SDS011;13778;48.236;9.894;2022-09-24T01:25:28;12.63;;;10.90;;
25988;SDS011;13778;48.236;9.894;2022-09-24T01:28:31;14.20;;;11.25;;
25988;SDS011;13778;48.236;9.894;2022-09-24T01:31:24;15.80;;;12.38;;
25988;SDS011;13778;48.236;9.894;2022-09-24T01:34:18;14.88;;;12.00;;
25988;SDS011;13778;48.236;9.894;2022-09-24T01:37:09;13.35;;;11.82;;
25988;SDS011;13778;48.236;9.894;2022-09-24T01:40:02;14.40;;;11.40;;
25988;SDS011;13778;48.236;9.894;2022-09-24T01:42:54;15.85;;;11.95;;
25988;SDS011;13778;48.236;9.894;2022-09-24T01:45:45;16.35;;;11.68;;
25988;SDS011;13778;48.236;9.894;2022-09-24T01:48:37;15.82;;;11.90;;
25988;SDS011;13778;48.236;9.894;2022-09-24T01:51:29;15.23;;;12.65;;
25988;SDS011;13778;48.236;9.894;2022-09-24T01:54:24;18.05;;;11.77;;
25988;SDS011;13778;48.236;9.894;2022-09-24T01:57:17;15.90;;;11.98;;
25988;SDS011;13778;48.236;9.894;2022-09-24T02:02:59;14.82;;;11.15;;
25988;SDS011;13778;48.236;9.894;2022-09-24T02:05:56;16.23;;;11.88;;
25988;SDS011;13778;48.236;9.894;2022-09-24T02:08:48;13.82;;;11.70;;
25988;SDS011;13778;48.236;9.894;2022-09-24T02:11:39;17.50;;;11.93;;
25988;SDS011;13778;48.236;9.894;2022-09-24T02:14:30;14.98;;;11.77;;
25988;SDS011;13778;48.236;9.894;2022-09-24T02:17:21;13.85;;;11.50;;
25988;SDS011;13778;48.236;9.894;2022-09-24T02:20:13;15.95;;;11.63;;
25988;SDS011;13778;48.236;9.894;2022-09-24T02:23:06;16.08;;;12.55;;
25988;SDS011;13778;48.236;9.894;2022-09-24T02:25:57;15.98;;;12.35;;
25988;SDS011;13778;48.236;9.894;2022-09-24T02:28:50;16.10;;;12.38;;
25988;SDS011;13778;48.236;9.894;2022-09-24T02:31:41;21.98;;;12.90;;
25988;SDS011;13778;48.236;9.894;2022-09-24T02:37:23;18.25;;;11.60;;
25988;SDS011;13778;48.236;9.894;2022-09-24T02:40:15;16.55;;;12.32;;
25988;SDS011;13778;48.236;9.894;2022-09-24T02:43:05;15.82;;;12.13;;
25988;SDS011;13778;48.236;9.894;2022-09-24T02:45:56;16.85;;;12.10;;
25988;SDS011;13778;48.236;9.894;2022-09-24T02:48:46;17.70;;;12.20;;
25988;SDS011;13778;48.236;9.894;2022-09-24T02:51:37;17.25;;;12.63;;
25988;SDS011;13778;48.236;9.894;2022-09-24T02:54:27;14.48;;;12.65;;
25988;SDS011;13778;48.236;9.894;2022-09-24T02:57:19;19.13;;;13.77;;
25988;SDS011;13778;48.236;9.894;2022-09-24T03:03:00;22.63;;;12.38;;
25988;SDS011;13778;48.236;9.894;2022-09-24T03:05:50;18.55;;;14.30;;
25988;SDS011;13778;48.236;9.894;2022-09-24T03:08:42;16.33;;;12.35;;
25988;SDS011;13778;48.236;9.894;2022-09-24T03:11:33;22.60;;;15.88;;
25988;SDS011;13778;48.236;9.894;2022-09-24T03:14:25;18.52;;;14.57;;
25988;SDS011;13778;48.236;9.894;2022-09-24T03:17:15;18.60;;;15.20;;
25988;SDS011;13778;48.236;9.894;2022-09-24T03:20:06;23.05;;;20.60;;
25988;SDS011;13778;48.236;9.894;2022-09-24T03:22:56;18.65;;;16.85;;
25988;SDS011;13778;48.236;9.894;2022-09-24T03:25:47;19.33;;;17.33;;
25988;SDS011;13778;48.236;9.894;2022-09-24T03:28:37;20.23;;;17.77;;
25988;SDS011;13778;48.236;9.894;2022-09-24T03:31:29;16.83;;;13.02;;
25988;SDS011;13778;48.236;9.894;2022-09-24T03:34:19;15.00;;;12.10;;
25988;SDS011;13778;48.236;9.894;2022-09-24T03:37:09;16.02;;;12.90;;
25988;SDS011;13778;48.236;9.894;2022-09-24T03:40:00;15.98;;;13.32;;
25988;SDS011;13778;48.236;9.894;2022-09-24T03:42:51;17.90;;;12.30;;
25988;SDS011;13778;48.236;9.894;2022-09-24T03:45:41;18.15;;;12.40;;
25988;SDS011;13778;48.236;9.894;2022-09-24T03:48:33;17.55;;;13.02;;
25988;SDS011;13778;48.236;9.894;2022-09-24T03:51:24;16.70;;;12.20;;
25988;SDS011;13778;48.236;9.894;2022-09-24T03:54:15;15.27;;;10.63;;
25988;SDS011;13778;48.236;9.894;2022-09-24T03:57:05;16.17;;;11.13;;
25988;SDS011;13778;48.236;9.894;2022-09-24T03:59:55;14.55;;;12.23;;
25988;SDS011;13778;48.236;9.894;2022-09-24T04:02:46;13.88;;;11.93;;
25988;SDS011;13778;48.236;9.894;2022-09-24T04:05:38;20.55;;;13.60;;
25988;SDS011;13778;48.236;9.894;2022-09-24T04:08:28;15.38;;;12.15;;
25988;SDS011;13778;48.236;9.894;2022-09-24T04:11:19;16.27;;;12.23;;
25988;SDS011;13778;48.236;9.894;2022-09-24T04:14:10;14.25;;;12.75;;
25988;SDS011;13778;48.236;9.894;2022-09-24T04:17:00;18.10;;;11.23;;
25988;SDS011;13778;48.236;9.894;2022-09-24T04:19:52;13.45;;;12.02;;
25988;SDS011;13778;48.236;9.894;2022-09-24T04:22:44;16.58;;;12.23;;
25988;SDS011;13778;48.236;9.894;2022-09-24T04:25:35;19.40;;;12.50;;
25988;SDS011;13778;48.236;9.894;2022-09-24T04:28:26;15.52;;;12.68;;
25988;SDS011;13778;48.236;9.894;2022-09-24T04:31:16;16.42;;;12.73;;
25988;SDS011;13778;48.236;9.894;2022-09-24T04:34:08;19.35;;;12.85;;
25988;SDS011;13778;48.236;9.894;2022-09-24T04:36:58;16.92;;;12.85;;
25988;SDS011;13778;48.236;9.894;2022-09-24T04:39:50;21.00;;;13.40;;
25988;SDS011;13778;48.236;9.894;2022-09-24T04:42:41;16.65;;;13.40;;
25988;SDS011;13778;48.236;9.894;2022-09-24T04:48:22;18.23;;;13.10;;
25988;SDS011;13778;48.236;9.894;2022-09-24T04:51:13;16.20;;;12.52;;
25988;SDS011;13778;48.236;9.894;2022-09-24T04:54:07;14.82;;;12.65;;
25988;SDS011;13778;48.236;9.894;2022-09-24T04:56:59;16.58;;;12.23;;
25988;SDS011;13778;48.236;9.894;2022-09-24T04:59:50;12.98;;;11.60;;
25988;SDS011;13778;48.236;9.894;2022-09-24T05:02:40;15.68;;;12.00;;
25988;SDS011;13778;48.236;9.894;2022-09-24T05:05:31;15.77;;;13.02;;
25988;SDS011;13778;48.236;9.894;2022-09-24T05:08:21;18.55;;;13.38;;
25988;SDS011;13778;48.236;9.894;2022-09-24T05:11:12;15.38;;;10.35;;
25988;SDS011;13778;48.236;9.894;2022-09-24T05:14:03;15.27;;;11.43;;
25988;SDS011;13778;48.236;9.894;2022-09-24T05:16:54;13.20;;;11.40;;
25988;SDS011;13778;48.236;9.894;2022-09-24T05:19:44;16.45;;;12.27;;
25988;SDS011;13778;48.236;9.894;2022-09-24T05:22:35;15.40;;;12.05;;
25988;SDS011;13778;48.236;9.894;2022-09-24T05:25:25;16.02;;;11.98;;
25988;SDS011;13778;48.236;9.894;2022-09-24T05:28:16;17.48;;;12.82;;
25988;SDS011;13778;48.236;9.894;2022-09-24T05:31:07;14.38;;;10.40;;
25988;SDS011;13778;48.236;9.894;2022-09-24T05:33:58;15.77;;;14.02;;
25988;SDS011;13778;48.236;9.894;2022-09-24T05:36:48;21.38;;;14.90;;
25988;SDS011;13778;48.236;9.894;2022-09-24T05:39:39;20.50;;;14.07;;
25988;SDS011;13778;48.236;9.894;2022-09-24T05:42:29;20.88;;;13.38;;
25988;SDS011;13778;48.236;9.894;2022-09-24T05:45:20;17.90;;;13.25;;
25988;SDS011;13778;48.236;9.894;2022-09-24T05:48:12;15.52;;;13.13;;
25988;SDS011;13778;48.236;9.894;2022-09-24T05:51:02;24.88;;;14.07;;
25988;SDS011;13778;48.236;9.894;2022-09-24T05:53:53;19.13;;;13.15;;
25988;SDS011;13778;48.236;9.894;2022-09-24T05:56:44;16.77;;;13.27;;
25988;SDS011;13778;48.236;9.894;2022-09-24T05:59:34;18.83;;;12.02;;
25988;SDS011;13778;48.236;9.894;2022-09-24T06:02:25;13.43;;;11.45;;
25988;SDS011;13778;48.236;9.894;2022-09-24T06:05:17;13.73;;;11.32;;
25988;SDS011;13778;48.236;9.894;2022-09-24T06:10:57;17.02;;;11.93;;
25988;SDS011;13778;48.236;9.894;2022-09-24T06:13:48;19.58;;;13.10;;
25988;SDS011;13778;48.236;9.894;2022-09-24T06:16:39;22.07;;;12.93;;
25988;SDS011;13778;48.236;9.894;2022-09-24T06:19:29;18.40;;;13.32;;
25988;SDS011;13778;48.236;9.894;2022-09-24T06:22:21;16.15;;;12.45;;
25988;SDS011;13778;48.236;9.894;2022-09-24T06:28:02;16.77;;;12.43;;
25988;SDS011;13778;48.236;9.894;2022-09-24T06:30:53;15.30;;;12.25;;
25988;SDS011;13778;48.236;9.894;2022-09-24T06:33:43;15.00;;;11.90;;
25988;SDS011;13778;48.236;9.894;2022-09-24T06:36:34;18.50;;;12.68;;
25988;SDS011;13778;48.236;9.894;2022-09-24T06:39:26;14.50;;;12.52;;
25988;SDS011;13778;48.236;9.894;2022-09-24T06:42:16;17.42;;;12.35;;
25988;SDS011;13778;48.236;9.894;2022-09-24T06:47:59;17.70;;;13.25;;
25988;SDS011;13778;48.236;9.894;2022-09-24T06:50:49;17.00;;;12.37;;
25988;SDS011;13778;48.236;9.894;2022-09-24T06:53:40;18.00;;;12.73;;
25988;SDS011;13778;48.236;9.894;2022-09-24T06:56:32;17.95;;;13.35;;
25988;SDS011;13778;48.236;9.894;2022-09-24T06:59:22;17.25;;;13.02;;
25988;SDS011;13778;48.236;9.894;2022-09-24T07:02:13;18.73;;;14.35;;
25988;SDS011;13778;48.236;9.894;2022-09-24T07:05:04;16.67;;;14.68;;
25988;SDS011;13778;48.236;9.894;2022-09-24T07:07:54;18.52;;;15.48;;
25988;SDS011;13778;48.236;9.894;2022-09-24T07:10:45;17.48;;;14.27;;
25988;SDS011;13778;48.236;9.894;2022-09-24T07:13:38;18.40;;;14.18;;
25988;SDS011;13778;48.236;9.894;2022-09-24T07:19:19;20.52;;;14.30;;
25988;SDS011;13778;48.236;9.894;2022-09-24T07:22:09;17.90;;;14.43;;
25988;SDS011;13778;48.236;9.894;2022-09-24T07:25:00;21.33;;;15.15;;
25988;SDS011;13778;48.236;9.894;2022-09-24T07:27:50;20.88;;;13.80;;
25988;SDS011;13778;48.236;9.894;2022-09-24T07:30:42;18.42;;;13.85;;
25988;SDS011;13778;48.236;9.894;2022-09-24T07:33:33;22.02;;;14.93;;
25988;SDS011;13778;48.236;9.894;2022-09-24T07:36:23;18.30;;;14.90;;
25988;SDS011;13778;48.236;9.894;2022-09-24T07:39:14;23.70;;;16.05;;
25988;SDS011;13778;48.236;9.894;2022-09-24T07:42:04;19.15;;;16.08;;
25988;SDS011;13778;48.236;9.894;2022-09-24T07:44:55;25.60;;;15.65;;
25988;SDS011;13778;48.236;9.894;2022-09-24T07:47:47;18.83;;;15.43;;
25988;SDS011;13778;48.236;9.894;2022-09-24T07:50:38;27.05;;;16.25;;
25988;SDS011;13778;48.236;9.894;2022-09-24T07:53:29;22.55;;;14.90;;
25988;SDS011;13778;48.236;9.894;2022-09-24T07:56:20;20.15;;;15.82;;
25988;SDS011;13778;48.236;9.894;2022-09-24T07:59:11;23.65;;;16.63;;
25988;SDS011;13778;48.236;9.894;2022-09-24T08:02:02;23.97;;;15.80;;
25988;SDS011;13778;48.236;9.894;2022-09-24T08:04:54;25.13;;;16.23;;
25988;SDS011;13778;48.236;9.894;2022-09-24T08:10:34;18.80;;;16.13;;
25988;SDS011;13778;48.236;9.894;2022-09-24T08:13:26;23.10;;;16.73;;
25988;SDS011;13778;48.236;9.894;2022-09-24T08:16:17;18.63;;;16.73;;
25988;SDS011;13778;48.236;9.894;2022-09-24T08:19:09;19.55;;;17.40;;
25988;SDS011;13778;48.236;9.894;2022-09-24T08:22:03;18.50;;;16.10;;
25988;SDS011;13778;48.236;9.894;2022-09-24T08:27:45;18.02;;;16.13;;
25988;SDS011;13778;48.236;9.894;2022-09-24T08:30:36;27.98;;;17.83;;
25988;SDS011;13778;48.236;9.894;2022-09-24T08:33:28;23.75;;;18.88;;
25988;SDS011;13778;48.236;9.894;2022-09-24T08:36:19;20.67;;;17.67;;
25988;SDS011;13778;48.236;9.894;2022-09-24T08:39:11;22.85;;;17.08;;
25988;SDS011;13778;48.236;9.894;2022-09-24T08:42:04;21.20;;;17.25;;
25988;SDS011;13778;48.236;9.894;2022-09-24T08:44:55;20.00;;;16.80;;
25988;SDS011;13778;48.236;9.894;2022-09-24T08:48:07;21.40;;;16.85;;
25988;SDS011;13778;48.236;9.894;2022-09-24T08:51:00;19.58;;;17.15;;
25988;SDS011;13778;48.236;9.894;2022-09-24T08:53:52;23.25;;;17.80;;
25988;SDS011;13778;48.236;9.894;2022-09-24T08:56:45;19.55;;;15.60;;
25988;SDS011;13778;48.236;9.894;2022-09-24T08:59:36;18.77;;;16.42;;
25988;SDS011;13778;48.236;9.894;2022-09-24T09:02:32;19.77;;;15.38;;
25988;SDS011;13778;48.236;9.894;2022-09-24T09:05:29;18.50;;;15.60;;
25988;SDS011;13778;48.236;9.894;2022-09-24T09:08:27;15.65;;;13.90;;
25988;SDS011;13778;48.236;9.894;2022-09-24T09:11:23;15.07;;;13.50;;
25988;SDS011;13778;48.236;9.894;2022-09-24T09:14:19;14.38;;;12.88;;
25988;SDS011;13778;48.236;9.894;2022-09-24T09:17:14;15.85;;;14.15;;
25988;SDS011;13778;48.236;9.894;2022-09-24T09:20:09;14.75;;;12.77;;
25988;SDS011;13778;48.236;9.894;2022-09-24T09:23:02;13.32;;;11.82;;
25988;SDS011;13778;48.236;9.894;2022-09-24T09:25:55;16.40;;;12.07;;
25988;SDS011;13778;48.236;9.894;2022-09-24T09:28:45;13.10;;;11.70;;
25988;SDS011;13778;48.236;9.894;2022-09-24T09:31:38;14.80;;;12.13;;
25988;SDS011;13778;48.236;9.894;2022-09-24T09:34:44;14.45;;;11.57;;
25988;SDS011;13778;48.236;9.894;2022-09-24T09:37:36;12.77;;;11.38;;
25988;SDS011;13778;48.236;9.894;2022-09-24T09:40:30;14.35;;;11.48;;
25988;SDS011;13778;48.236;9.894;2022-09-24T09:43:23;12.52;;;11.18;;
25988;SDS011;13778;48.236;9.894;2022-09-24T09:46:14;11.88;;;10.32;;
25988;SDS011;13778;48.236;9.894;2022-09-24T09:49:08;16.38;;;12.60;;
25988;SDS011;13778;48.236;9.894;2022-09-24T09:51:59;16.63;;;12.68;;
25988;SDS011;13778;48.236;9.894;2022-09-24T09:54:51;13.90;;;11.40;;
25988;SDS011;13778;48.236;9.894;2022-09-24T09:57:41;15.85;;;11.93;;
25988;SDS011;13778;48.236;9.894;2022-09-24T10:00:33;13.13;;;11.25;;
25988;SDS011;13778;48.236;9.894;2022-09-24T10:03:25;12.63;;;11.25;;
25988;SDS011;13778;48.236;9.894;2022-09-24T10:06:23;12.63;;;10.93;;
25988;SDS011;13778;48.236;9.894;2022-09-24T10:09:15;19.15;;;10.95;;
25988;SDS011;13778;48.236;9.894;2022-09-24T10:12:06;14.63;;;11.35;;
25988;SDS011;13778;48.236;9.894;2022-09-24T10:14:58;12.32;;;10.07;;
25988;SDS011;13778;48.236;9.894;2022-09-24T10:17:49;11.38;;;10.18;;
25988;SDS011;13778;48.236;9.894;2022-09-24T10:20:44;10.77;;;9.70;;
25988;SDS011;13778;48.236;9.894;2022-09-24T10:23:36;11.60;;;9.85;;
25988;SDS011;13778;48.236;9.894;2022-09-24T10:26:32;11.55;;;9.10;;
25988;SDS011;13778;48.236;9.894;2022-09-24T10:29:24;13.00;;;10.23;;
25988;SDS011;13778;48.236;9.894;2022-09-24T10:32:33;12.13;;;9.82;;
25988;SDS011;13778;48.236;9.894;2022-09-24T10:35:27;14.80;;;11.82;;
25988;SDS011;13778;48.236;9.894;2022-09-24T10:38:19;12.93;;;9.45;;
25988;SDS011;13778;48.236;9.894;2022-09-24T10:41:15;11.02;;;9.77;;
25988;SDS011;13778;48.236;9.894;2022-09-24T10:44:11;13.18;;;11.57;;
25988;SDS011;13778;48.236;9.894;2022-09-24T10:50:18;11.55;;;8.40;;
25988;SDS011;13778;48.236;9.894;2022-09-24T10:53:13;9.65;;;7.32;;
25988;SDS011;13778;48.236;9.894;2022-09-24T10:56:10;8.40;;;7.45;;
25988;SDS011;13778;48.236;9.894;2022-09-24T11:02:23;10.37;;;6.33;;
25988;SDS011;13778;48.236;9.894;2022-09-24T11:05:17;8.43;;;6.45;;
25988;SDS011;13778;48.236;9.894;2022-09-24T11:08:12;9.85;;;8.25;;
25988;SDS011;13778;48.236;9.894;2022-09-24T11:11:09;9.50;;;7.03;;
25988;SDS011;13778;48.236;9.894;2022-09-24T11:14:05;11.40;;;6.97;;
25988;SDS011;13778;48.236;9.894;2022-09-24T11:17:11;9.88;;;7.40;;
25988;SDS011;13778;48.236;9.894;2022-09-24T11:20:15;15.50;;;12.15;;
25988;SDS011;13778;48.236;9.894;2022-09-24T11:23:15;12.38;;;9.70;;
25988;SDS011;13778;48.236;9.894;2022-09-24T11:26:09;11.63;;;9.65;;
25988;SDS011;13778;48.236;9.894;2022-09-24T11:32:15;11.00;;;9.30;;
25988;SDS011;13778;48.236;9.894;2022-09-24T11:35:19;13.20;;;9.73;;
25988;SDS011;13778;48.236;9.894;2022-09-24T11:38:13;9.10;;;8.05;;
25988;SDS011;13778;48.236;9.894;2022-09-24T11:41:10;10.50;;;9.40;;
25988;SDS011;13778;48.236;9.894;2022-09-24T11:44:09;8.90;;;8.00;;
25988;SDS011;13778;48.236;9.894;2022-09-24T11:47:08;14.43;;;10.25;;
25988;SDS011;13778;48.236;9.894;2022-09-24T11:50:05;8.77;;;7.88;;
25988;SDS011;13778;48.236;9.894;2022-09-24T11:53:02;11.23;;;7.85;;
25988;SDS011;13778;48.236;9.894;2022-09-24T11:55:55;9.98;;;8.73;;
25988;SDS011;13778;48.236;9.894;2022-09-24T11:58:48;9.82;;;7.93;;
25988;SDS011;13778;48.236;9.894;2022-09-24T12:01:43;10.15;;;8.77;;
25988;SDS011;13778;48.236;9.894;2022-09-24T12:04:39;8.80;;;7.90;;
25988;SDS011;13778;48.236;9.894;2022-09-24T12:07:32;10.45;;;9.07;;
25988;SDS011;13778;48.236;9.894;2022-09-24T12:13:16;8.82;;;7.93;;
25988;SDS011;13778;48.236;9.894;2022-09-24T12:16:09;9.27;;;8.30;;
25988;SDS011;13778;48.236;9.894;2022-09-24T12:19:02;9.73;;;8.60;;
25988;SDS011;13778;48.236;9.894;2022-09-24T12:21:56;10.52;;;7.75;;
25988;SDS011;13778;48.236;9.894;2022-09-24T12:24:48;10.17;;;7.37;;
25988;SDS011;13778;48.236;9.894;2022-09-24T12:27:40;12.88;;;10.07;;
25988;SDS011;13778;48.236;9.894;2022-09-24T12:30:35;8.60;;;6.63;;
25988;SDS011;13778;48.236;9.894;2022-09-24T12:33:47;7.03;;;6.07;;
25988;SDS011;13778;48.236;9.894;2022-09-24T12:36:44;7.90;;;7.10;;
25988;SDS011;13778;48.236;9.894;2022-09-24T12:39:43;7.78;;;6.25;;
25988;SDS011;13778;48.236;9.894;2022-09-24T12:42:38;5.10;;;4.68;;
25988;SDS011;13778;48.236;9.894;2022-09-24T12:45:31;7.45;;;5.68;;
25988;SDS011;13778;48.236;9.894;2022-09-24T12:48:23;6.93;;;5.88;;
25988;SDS011;13778;48.236;9.894;2022-09-24T12:51:15;6.38;;;5.10;;
25988;SDS011;13778;48.236;9.894;2022-09-24T12:54:17;6.22;;;5.10;;
25988;SDS011;13778;48.236;9.894;2022-09-24T12:57:11;5.68;;;5.15;;
25988;SDS011;13778;48.236;9.894;2022-09-24T13:00:04;7.60;;;6.22;;
25988;SDS011;13778;48.236;9.894;2022-09-24T13:02:55;7.43;;;5.13;;
25988;SDS011;13778;48.236;9.894;2022-09-24T13:05:46;5.55;;;4.80;;
25988;SDS011;13778;48.236;9.894;2022-09-24T13:08:37;6.50;;;4.70;;
25988;SDS011;13778;48.236;9.894;2022-09-24T13:11:28;6.07;;;5.13;;
25988;SDS011;13778;48.236;9.894;2022-09-24T13:14:19;8.27;;;4.35;;
25988;SDS011;13778;48.236;9.894;2022-09-24T13:17:12;6.22;;;5.28;;
25988;SDS011;13778;48.236;9.894;2022-09-24T13:20:04;5.35;;;4.50;;
25988;SDS011;13778;48.236;9.894;2022-09-24T13:22:56;6.40;;;4.63;;
25988;SDS011;13778;48.236;9.894;2022-09-24T13:25:53;8.10;;;5.65;;
25988;SDS011;13778;48.236;9.894;2022-09-24T13:28:50;5.38;;;4.60;;
25988;SDS011;13778;48.236;9.894;2022-09-24T13:31:44;7.30;;;5.07;;
25988;SDS011;13778;48.236;9.894;2022-09-24T13:34:35;5.57;;;5.00;;
25988;SDS011;13778;48.236;9.894;2022-09-24T13:37:27;6.57;;;4.55;;
25988;SDS011;13778;48.236;9.894;2022-09-24T13:40:24;6.55;;;4.95;;
25988;SDS011;13778;48.236;9.894;2022-09-24T13:43:16;8.10;;;6.85;;
25988;SDS011;13778;48.236;9.894;2022-09-24T13:46:09;6.75;;;5.50;;
25988;SDS011;13778;48.236;9.894;2022-09-24T13:49:03;6.18;;;5.57;;
25988;SDS011;13778;48.236;9.894;2022-09-24T13:51:58;7.07;;;5.45;;
25988;SDS011;13778;48.236;9.894;2022-09-24T13:54:49;6.78;;;6.00;;
25988;SDS011;13778;48.236;9.894;2022-09-24T13:57:43;7.47;;;5.10;;
25988;SDS011;13778;48.236;9.894;2022-09-24T14:03:25;8.10;;;4.53;;
25988;SDS011;13778;48.236;9.894;2022-09-24T14:09:13;5.43;;;4.32;;
25988;SDS011;13778;48.236;9.894;2022-09-24T14:12:11;5.05;;;4.18;;
25988;SDS011;13778;48.236;9.894;2022-09-24T14:15:06;5.03;;;3.78;;
25988;SDS011;13778;48.236;9.894;2022-09-24T14:17:59;4.68;;;3.92;;
25988;SDS011;13778;48.236;9.894;2022-09-24T14:20:51;5.10;;;4.20;;
25988;SDS011;13778;48.236;9.894;2022-09-24T14:23:44;5.57;;;3.70;;
25988;SDS011;13778;48.236;9.894;2022-09-24T14:26:37;5.30;;;3.83;;
25988;SDS011;13778;48.236;9.894;2022-09-24T14:29:32;3.65;;;3.35;;
25988;SDS011;13778;48.236;9.894;2022-09-24T14:32:25;5.43;;;3.50;;
25988;SDS011;13778;48.236;9.894;2022-09-24T14:35:19;4.80;;;3.45;;
25988;SDS011;13778;48.236;9.894;2022-09-24T14:38:11;4.00;;;3.60;;
25988;SDS011;13778;48.236;9.894;2022-09-24T14:41:03;3.25;;;2.95;;
25988;SDS011;13778;48.236;9.894;2022-09-24T14:43:57;23.00;;;20.70;;
25988;SDS011;13778;48.236;9.894;2022-09-24T14:49:43;9.57;;;7.90;;
25988;SDS011;13778;48.236;9.894;2022-09-24T14:52:34;5.38;;;4.88;;
25988;SDS011;13778;48.236;9.894;2022-09-24T14:55:35;7.75;;;7.05;;
25988;SDS011;13778;48.236;9.894;2022-09-24T14:58:31;3.75;;;3.35;;
25988;SDS011;13778;48.236;9.894;2022-09-24T15:01:23;4.50;;;3.10;;
25988;SDS011;13778;48.236;9.894;2022-09-24T15:04:15;7.60;;;4.63;;
25988;SDS011;13778;48.236;9.894;2022-09-24T15:09:57;9.73;;;5.93;;
25988;SDS011;13778;48.236;9.894;2022-09-24T15:12:48;6.28;;;5.15;;
25988;SDS011;13778;48.236;9.894;2022-09-24T15:15:39;7.15;;;5.07;;
25988;SDS011;13778;48.236;9.894;2022-09-24T15:18:30;8.10;;;4.18;;
25988;SDS011;13778;48.236;9.894;2022-09-24T15:21:20;3.97;;;2.97;;
25988;SDS011;13778;48.236;9.894;2022-09-24T15:24:11;4.13;;;3.25;;
25988;SDS011;13778;48.236;9.894;2022-09-24T15:27:04;4.28;;;2.97;;
25988;SDS011;13778;48.236;9.894;2022-09-24T15:29:55;3.67;;;3.38;;
25988;SDS011;13778;48.236;9.894;2022-09-24T15:32:47;4.30;;;3.55;;
25988;SDS011;13778;48.236;9.894;2022-09-24T15:35:38;5.00;;;3.20;;
25988;SDS011;13778;48.236;9.894;2022-09-24T15:38:28;3.95;;;3.40;;
25988;SDS011;13778;48.236;9.894;2022-09-24T15:41:19;6.38;;;4.30;;
25988;SDS011;13778;48.236;9.894;2022-09-24T15:44:13;3.45;;;3.00;;
25988;SDS011;13778;48.236;9.894;2022-09-24T15:47:06;5.43;;;3.80;;
25988;SDS011;13778;48.236;9.894;2022-09-24T15:49:57;4.53;;;3.25;;
25988;SDS011;13778;48.236;9.894;2022-09-24T15:52:49;6.30;;;3.67;;
25988;SDS011;13778;48.236;9.894;2022-09-24T15:55:41;4.97;;;3.97;;
25988;SDS011;13778;48.236;9.894;2022-09-24T15:58:31;4.15;;;3.60;;
25988;SDS011;13778;48.236;9.894;2022-09-24T16:01:24;4.57;;;4.00;;
25988;SDS011;13778;48.236;9.894;2022-09-24T16:04:14;4.07;;;3.67;;
25988;SDS011;13778;48.236;9.894;2022-09-24T16:07:05;5.32;;;3.85;;
25988;SDS011;13778;48.236;9.894;2022-09-24T16:09:55;5.85;;;3.92;;
25988;SDS011;13778;48.236;9.894;2022-09-24T16:12:46;4.90;;;4.18;;
25988;SDS011;13778;48.236;9.894;2022-09-24T16:15:36;4.28;;;3.88;;
25988;SDS011;13778;48.236;9.894;2022-09-24T16:18:28;4.72;;;4.30;;
25988;SDS011;13778;48.236;9.894;2022-09-24T16:21:18;3.58;;;3.22;;
25988;SDS011;13778;48.236;9.894;2022-09-24T16:24:09;4.60;;;3.97;;
25988;SDS011;13778;48.236;9.894;2022-09-24T16:26:59;4.40;;;3.60;;
25988;SDS011;13778;48.236;9.894;2022-09-24T16:29:50;5.03;;;3.88;;
25988;SDS011;13778;48.236;9.894;2022-09-24T16:32:40;3.70;;;3.13;;
25988;SDS011;13778;48.236;9.894;2022-09-24T16:35:32;5.47;;;4.78;;
25988;SDS011;13778;48.236;9.894;2022-09-24T16:38:22;5.53;;;4.13;;
25988;SDS011;13778;48.236;9.894;2022-09-24T16:41:13;6.78;;;4.07;;
25988;SDS011;13778;48.236;9.894;2022-09-24T16:44:03;5.75;;;4.38;;
25988;SDS011;13778;48.236;9.894;2022-09-24T16:46:54;5.70;;;4.40;;
25988;SDS011;13778;48.236;9.894;2022-09-24T16:49:45;5.32;;;4.82;;
25988;SDS011;13778;48.236;9.894;2022-09-24T16:52:36;6.65;;;4.32;;
25988;SDS011;13778;48.236;9.894;2022-09-24T16:55:27;5.65;;;4.68;;
25988;SDS011;13778;48.236;9.894;2022-09-24T16:58:18;6.28;;;5.30;;
25988;SDS011;13778;48.236;9.894;2022-09-24T17:01:09;8.63;;;5.05;;
25988;SDS011;13778;48.236;9.894;2022-09-24T17:03:59;6.25;;;4.78;;
25988;SDS011;13778;48.236;9.894;2022-09-24T17:06:52;5.43;;;4.80;;
25988;SDS011;13778;48.236;9.894;2022-09-24T17:09:44;5.55;;;4.38;;
25988;SDS011;13778;48.236;9.894;2022-09-24T17:12:52;5.38;;;4.88;;
25988;SDS011;13778;48.236;9.894;2022-09-24T17:15:42;5.97;;;5.38;;
25988;SDS011;13778;48.236;9.894;2022-09-24T17:18:33;7.03;;;6.25;;
25988;SDS011;13778;48.236;9.894;2022-09-24T17:21:23;9.70;;;5.85;;
25988;SDS011;13778;48.236;9.894;2022-09-24T17:24:14;6.72;;;5.90;;
25988;SDS011;13778;48.236;9.894;2022-09-24T17:27:06;6.32;;;5.63;;
25988;SDS011;13778;48.236;9.894;2022-09-24T17:32:47;7.38;;;6.47;;
25988;SDS011;13778;48.236;9.894;2022-09-24T17:35:37;10.05;;;7.38;;
25988;SDS011;13778;48.236;9.894;2022-09-24T17:38:28;9.77;;;7.88;;
25988;SDS011;13778;48.236;9.894;2022-09-24T17:41:19;14.75;;;8.57;;
25988;SDS011;13778;48.236;9.894;2022-09-24T17:44:11;10.43;;;8.55;;
25988;SDS011;13778;48.236;9.894;2022-09-24T17:47:02;9.45;;;8.43;;
25988;SDS011;13778;48.236;9.894;2022-09-24T17:49:52;10.80;;;8.30;;
25988;SDS011;13778;48.236;9.894;2022-09-24T17:52:42;10.40;;;8.20;;
25988;SDS011;13778;48.236;9.894;2022-09-24T17:55:33;10.23;;;7.85;;
25988;SDS011;13778;48.236;9.894;2022-09-24T17:58:23;10.57;;;8.75;;
25988;SDS011;13778;48.236;9.894;2022-09-24T18:01:15;12.55;;;8.93;;
25988;SDS011;13778;48.236;9.894;2022-09-24T18:04:08;14.68;;;9.80;;